Aeroporto :
LOGIN :

Iscrizione | Disclaimer

   EN    FR    IT 

 










Sommario :    VFR   VFR Marginale   IFR   IFR Intensivo   IFR Molto Intensivo
Visibilità : 
Base nubi : 
>= 8 km
>= 3000ft
5 / 8 km
1000 / 3000 ft
1500m / 5 km
500 / 1000 ft
800 / 1500m
200 / 500 ft
< 800m
< 200 ft
Simboli :   Temporali  Nebbia  Neve Forte  Precipitazioni Forti  Vento > 20 kt
SIGMETs :   Varie  Temporali  Ghiacco  Turbolenza  Onda orograficha  Ceneri Vulcaniche






- Altitudine del aeroporto : 755 ft
- Codice IATA : KSC


LZKZ - Kosice

ULTIMO METAR :
  • 210600Z VRB01KT 8000 BKN013 M03/M04 Q1043 NOSIG

METARs OBSOLETI :
  • 210530Z VRB01KT 8000 BKN013 M03/M04 Q1043 NOSIG
  • 210500Z 33002KT 8000 BKN015 M03/M04 Q1043
  • 210430Z 01002KT 8000 BKN016 M03/M04 Q1043
  • 210400Z 33001KT 9000 BKN020 M04/M05 Q1043
  • 210330Z VRB02KT 8000 BKN020 M04/M05 Q1043

TAF TAF LZKZ
Valido dal 21 a 06 ore il 22 a 06 ore UTC


210500Z 2106/2206 VRB02KT 6000 BKN015
PROB40 2106/2109 1200 BCFG BR BKN005
TEMPO 2106/2109 0600 FZFG BKN002
BECMG 2109/2111 20005KT 2000 BR BKN004
TEMPO 2112/2117 6000 SCT005 BKN018
BECMG 2122/2200 VRB02KT 0800 FZFG OVC001



MetMap, La meteo Aeronautica in un colpo d'occhio ! - Copyright ORBIFLY Dicembre 2007 - Disclaimer

ORBIFLY MET'MAP TEAM :

Programmazione e sviluppo : Alexandra Zaïnal
Concezione : Baudouin d'Aumeries
Aiuto per la programmazione : Marc-Olivier Méhu
Supporto tecnico e logistico : Manuel Goepfert
Aiuto per la traduzione : Arnaldo La Scala

Contatto : metmap@orbifly.com




FONTI E CREDITI :

   NOAA